Time;durP1;ratioP1;P1;durP2;ratioP2;P2;SDS_P1;SDS_P2;PMS_P1;PMS_P2;Temp;Humidity;BMP_temperature;BMP_pressure;BME280_temperature;BME280_humidity;BME280_pressure;Samples;Min_cycle;Max_cycle;Signal;HPM_P1;HPM_P2
2023/03/09 00:00:53;;;;;;;65.82;32.33;;;;;;;;;;4892302;29;20045;-85
2023/03/09 00:03:39;;;;;;;66.65;32.38;;;;;;;;;;4900947;29;20515;-85
2023/03/09 00:06:24;;;;;;;78.43;36.90;;;;;;;;;;4900866;29;20048;-86
2023/03/09 00:09:12;;;;;;;72.50;33.83;;;;;;;;;;4901211;29;20052;-86
2023/03/09 00:11:57;;;;;;;115.93;45.55;;;;;;;;;;4901109;29;20048;-86
2023/03/09 00:14:42;;;;;;;99.50;41.95;;;;;;;;;;4908430;29;20056;-86
2023/03/09 00:17:27;;;;;;;112.55;45.10;;;;;;;;;;4901845;29;20044;-85
2023/03/09 00:20:18;;;;;;;91.88;39.22;;;;;;;;;;4895056;29;20056;-85
2023/03/09 00:23:08;;;;;;;97.45;43.63;;;;;;;;;;4910705;29;20061;-86
2023/03/09 00:25:53;;;;;;;92.85;39.83;;;;;;;;;;4903774;29;20040;-85
2023/03/09 00:28:40;;;;;;;91.88;40.22;;;;;;;;;;4901330;29;20049;-86
2023/03/09 00:31:25;;;;;;;96.60;41.90;;;;;;;;;;4902138;29;20048;-86
2023/03/09 00:34:11;;;;;;;103.32;44.30;;;;;;;;;;4902514;29;20048;-86
2023/03/09 00:36:56;;;;;;;90.35;39.67;;;;;;;;;;4901912;29;20495;-86
2023/03/09 00:39:42;;;;;;;84.15;38.00;;;;;;;;;;4900589;29;20505;-85
2023/03/09 00:42:26;;;;;;;80.38;35.88;;;;;;;;;;4901150;29;20048;-85
2023/03/09 00:45:13;;;;;;;117.65;44.47;;;;;;;;;;4901446;29;20052;-85
2023/03/09 00:47:59;;;;;;;103.40;41.63;;;;;;;;;;4901060;29;20052;-86
2023/03/09 00:50:44;;;;;;;86.38;39.67;;;;;;;;;;4899302;29;20048;-85
2023/03/09 00:53:30;;;;;;;70.82;34.45;;;;;;;;;;4900677;29;20045;-86
2023/03/09 00:56:18;;;;;;;68.32;29.58;;;;;;;;;;4906291;29;20040;-85
2023/03/09 00:59:04;;;;;;;75.95;32.95;;;;;;;;;;4899801;29;20080;-85
2023/03/09 01:01:50;;;;;;;74.07;34.55;;;;;;;;;;4905205;29;20048;-85
2023/03/09 01:04:35;;;;;;;57.28;27.48;;;;;;;;;;4900731;29;20045;-85
2023/03/09 01:07:22;;;;;;;57.40;24.88;;;;;;;;;;4899687;29;20053;-85
2023/03/09 01:10:11;;;;;;;47.55;25.35;;;;;;;;;;4900617;29;20052;-85
2023/03/09 01:12:56;;;;;;;58.92;26.55;;;;;;;;;;4904641;29;20054;-86
2023/03/09 01:15:41;;;;;;;60.38;28.33;;;;;;;;;;4900862;29;20582;-85
2023/03/09 01:18:27;;;;;;;60.47;28.45;;;;;;;;;;4892548;29;20037;-85
2023/03/09 01:21:14;;;;;;;54.42;26.85;;;;;;;;;;4905155;29;20052;-85
2023/03/09 01:23:59;;;;;;;57.05;27.08;;;;;;;;;;4900261;29;20398;-85
2023/03/09 01:26:46;;;;;;;52.20;25.80;;;;;;;;;;4904485;29;20044;-85
2023/03/09 01:29:31;;;;;;;49.25;24.60;;;;;;;;;;4904937;29;20053;-85
2023/03/09 01:32:17;;;;;;;41.75;21.42;;;;;;;;;;4904623;29;20048;-85
2023/03/09 01:35:04;;;;;;;45.90;21.50;;;;;;;;;;4899745;29;20056;-85
2023/03/09 01:37:51;;;;;;;45.22;22.20;;;;;;;;;;4905185;29;20044;-85
2023/03/09 01:40:37;;;;;;;46.95;26.63;;;;;;;;;;4905080;29;20056;-85
2023/03/09 01:43:34;;;;;;;47.05;23.27;;;;;;;;;;4904337;29;20527;-85
2023/03/09 01:46:20;;;;;;;44.30;21.95;;;;;;;;;;4898811;29;20041;-85
2023/03/09 01:49:39;;;;;;;38.85;21.38;;;;;;;;;;4898505;29;20056;-84
2023/03/09 01:52:29;;;;;;;45.22;20.20;;;;;;;;;;4898734;29;20044;-85
2023/03/09 01:55:21;;;;;;;38.05;19.10;;;;;;;;;;4898163;29;20045;-85
2023/03/09 01:58:12;;;;;;;38.33;19.63;;;;;;;;;;4898505;29;20049;-85
2023/03/09 02:00:58;;;;;;;37.17;19.70;;;;;;;;;;4897456;29;20062;-85
2023/03/09 02:03:48;;;;;;;42.80;20.45;;;;;;;;;;4903160;29;20052;-85
2023/03/09 02:06:35;;;;;;;40.08;21.60;;;;;;;;;;4890285;29;20041;-85
2023/03/09 02:09:57;;;;;;;52.28;23.83;;;;;;;;;;4901563;29;20060;-85
2023/03/09 02:12:52;;;;;;;60.28;26.58;;;;;;;;;;4890613;29;20040;-85
2023/03/09 02:15:38;;;;;;;82.10;31.15;;;;;;;;;;4890419;29;20044;-85
2023/03/09 02:18:25;;;;;;;82.45;31.10;;;;;;;;;;4903335;29;20044;-85
2023/03/09 02:21:17;;;;;;;70.32;29.08;;;;;;;;;;4898119;29;20064;-85
2023/03/09 02:24:16;;;;;;;68.50;28.60;;;;;;;;;;4905167;29;20434;-85
2023/03/09 02:27:26;;;;;;;31.40;14.35;;;;;;;;;;4898799;29;20045;-85
2023/03/09 02:30:13;;;;;;;57.53;26.48;;;;;;;;;;4904977;29;20052;-85
2023/03/09 02:33:27;;;;;;;54.97;25.00;;;;;;;;;;4903968;29;20487;-85
2023/03/09 02:36:14;;;;;;;53.25;23.95;;;;;;;;;;4892505;29;20041;-85
2023/03/09 02:39:20;;;;;;;56.28;24.15;;;;;;;;;;4904764;29;20056;-85
2023/03/09 02:42:06;;;;;;;53.00;23.87;;;;;;;;;;4905206;29;20053;-85
2023/03/09 02:44:53;;;;;;;43.67;20.73;;;;;;;;;;4905826;29;20499;-85
2023/03/09 02:47:39;;;;;;;44.95;21.08;;;;;;;;;;4899747;29;20044;-85
2023/03/09 02:50:25;;;;;;;50.58;22.88;;;;;;;;;;4906049;29;20044;-85
2023/03/09 02:53:10;;;;;;;45.10;21.80;;;;;;;;;;4904318;29;20044;-85
2023/03/09 02:55:55;;;;;;;53.35;24.90;;;;;;;;;;4891688;29;20052;-85
2023/03/09 02:58:41;;;;;;;59.28;24.85;;;;;;;;;;4904384;29;20040;-84
2023/03/09 03:01:27;;;;;;;51.75;23.08;;;;;;;;;;4903335;29;20060;-85
2023/03/09 03:04:12;;;;;;;46.40;23.17;;;;;;;;;;4898771;29;20048;-85
2023/03/09 03:06:58;;;;;;;50.95;24.55;;;;;;;;;;4904744;29;20045;-85
2023/03/09 03:09:43;;;;;;;60.58;30.65;;;;;;;;;;4902104;29;20053;-85
2023/03/09 03:12:29;;;;;;;81.40;38.22;;;;;;;;;;4904796;29;20060;-86
2023/03/09 03:15:16;;;;;;;83.47;41.50;;;;;;;;;;4904451;29;20048;-85
2023/03/09 03:18:02;;;;;;;74.55;37.70;;;;;;;;;;4904322;29;20411;-85
2023/03/09 03:20:48;;;;;;;67.93;32.40;;;;;;;;;;4903297;29;20061;-85
2023/03/09 03:23:34;;;;;;;56.58;30.92;;;;;;;;;;4902857;29;20048;-82
2023/03/09 03:26:19;;;;;;;69.38;32.05;;;;;;;;;;4903185;29;20044;-86
2023/03/09 03:29:09;;;;;;;159.38;68.13;;;;;;;;;;4902911;29;20044;-86
2023/03/09 03:31:55;;;;;;;124.63;54.88;;;;;;;;;;4889744;29;20052;-85
2023/03/09 03:34:42;;;;;;;97.63;44.22;;;;;;;;;;4902324;29;20056;-85
2023/03/09 03:37:29;;;;;;;55.47;28.80;;;;;;;;;;4900735;29;20045;-86
2023/03/09 03:40:15;;;;;;;47.83;23.02;;;;;;;;;;4906323;29;20052;-86
2023/03/09 03:43:03;;;;;;;45.65;22.38;;;;;;;;;;4906103;29;20057;-86
2023/03/09 03:45:49;;;;;;;46.80;22.52;;;;;;;;;;4905618;29;20403;-86
2023/03/09 03:48:34;;;;;;;44.65;22.10;;;;;;;;;;4905858;29;20044;-86
2023/03/09 03:51:20;;;;;;;47.92;22.92;;;;;;;;;;4892694;29;20045;-86
2023/03/09 03:54:09;;;;;;;43.28;21.83;;;;;;;;;;4892765;29;20060;-86
2023/03/09 03:56:54;;;;;;;45.85;22.42;;;;;;;;;;4905636;29;20428;-86
2023/03/09 03:59:39;;;;;;;44.30;21.75;;;;;;;;;;4899242;29;20041;-86
2023/03/09 04:02:24;;;;;;;52.85;24.60;;;;;;;;;;4900845;29;20053;-86
2023/03/09 04:05:10;;;;;;;48.42;22.95;;;;;;;;;;4905781;29;20399;-86
2023/03/09 04:07:57;;;;;;;47.85;21.95;;;;;;;;;;4905309;29;20044;-86
2023/03/09 04:10:42;;;;;;;39.03;22.20;;;;;;;;;;4899522;29;20049;-86
2023/03/09 04:13:30;;;;;;;45.00;24.27;;;;;;;;;;4905496;29;20068;-86
2023/03/09 04:16:16;;;;;;;47.97;24.88;;;;;;;;;;4900190;29;20399;-86
2023/03/09 04:19:02;;;;;;;46.28;22.67;;;;;;;;;;4904303;29;20483;-86
2023/03/09 04:21:48;;;;;;;42.85;22.95;;;;;;;;;;4885668;29;20044;-87
2023/03/09 04:24:34;;;;;;;48.22;24.33;;;;;;;;;;4905325;29;20052;-86
2023/03/09 04:27:20;;;;;;;49.17;21.95;;;;;;;;;;4905236;29;20048;-86
2023/03/09 04:30:11;;;;;;;37.05;19.08;;;;;;;;;;4891422;29;20052;-86
2023/03/09 04:32:57;;;;;;;42.83;18.90;;;;;;;;;;4899405;29;20052;-86
2023/03/09 04:35:42;;;;;;;41.40;20.73;;;;;;;;;;4904304;29;20056;-86
2023/03/09 04:38:34;;;;;;;37.17;18.70;;;;;;;;;;4905480;29;20040;-87
2023/03/09 04:41:21;;;;;;;35.97;19.08;;;;;;;;;;4905102;29;20450;-87
2023/03/09 04:44:12;;;;;;;37.70;18.73;;;;;;;;;;4891764;29;20044;-86
2023/03/09 04:46:58;;;;;;;38.70;19.17;;;;;;;;;;4903608;29;20045;-86
2023/03/09 04:49:43;;;;;;;38.80;17.70;;;;;;;;;;4899564;29;20052;-86
2023/03/09 04:52:30;;;;;;;43.10;16.88;;;;;;;;;;4899526;29;20395;-87
2023/03/09 04:55:16;;;;;;;33.83;17.38;;;;;;;;;;4891787;29;20045;-86
2023/03/09 04:58:02;;;;;;;31.30;15.85;;;;;;;;;;4904438;29;20044;-86
2023/03/09 05:00:49;;;;;;;42.30;20.33;;;;;;;;;;4904459;29;20056;-85
2023/03/09 05:03:38;;;;;;;37.42;20.20;;;;;;;;;;4885073;29;20398;-84
2023/03/09 05:06:24;;;;;;;38.55;19.40;;;;;;;;;;4904419;29;20414;-85
2023/03/09 05:09:11;;;;;;;32.50;17.67;;;;;;;;;;4890019;29;20052;-85
2023/03/09 05:11:57;;;;;;;28.35;14.63;;;;;;;;;;4890839;29;20060;-85
2023/03/09 05:14:43;;;;;;;35.15;15.75;;;;;;;;;;4899104;29;20052;-86
2023/03/09 05:17:30;;;;;;;45.90;19.63;;;;;;;;;;4891835;29;20040;-82
2023/03/09 05:20:16;;;;;;;47.15;22.17;;;;;;;;;;4898324;29;20053;-82
2023/03/09 05:23:07;;;;;;;37.92;20.20;;;;;;;;;;4904241;29;20045;-82
2023/03/09 05:25:58;;;;;;;42.00;20.13;;;;;;;;;;4904109;29;20056;-82
2023/03/09 05:28:43;;;;;;;41.50;20.55;;;;;;;;;;4903666;29;20495;-82
2023/03/09 05:31:29;;;;;;;57.20;27.13;;;;;;;;;;4904227;29;20044;-82
2023/03/09 05:34:17;;;;;;;64.65;29.33;;;;;;;;;;4903831;29;20056;-82
2023/03/09 05:37:02;;;;;;;54.90;28.90;;;;;;;;;;4890422;29;20044;-82
2023/03/09 05:39:49;;;;;;;56.88;29.70;;;;;;;;;;4903637;29;20048;-82
2023/03/09 05:42:35;;;;;;;59.28;32.08;;;;;;;;;;4903827;29;20495;-82
2023/03/09 05:45:21;;;;;;;67.00;32.78;;;;;;;;;;4903955;29;20048;-82
2023/03/09 05:48:06;;;;;;;79.68;32.33;;;;;;;;;;4903039;29;20053;-81
2023/03/09 05:50:51;;;;;;;59.10;30.45;;;;;;;;;;4903808;29;20052;-82
2023/03/09 05:53:37;;;;;;;53.65;25.23;;;;;;;;;;4905570;29;20049;-86
2023/03/09 05:56:23;;;;;;;30.58;14.43;;;;;;;;;;4903531;29;20052;-83
2023/03/09 05:59:12;;;;;;;12.80;6.82;;;;;;;;;;4903589;29;20040;-86
2023/03/09 06:01:56;;;;;;;10.88;6.00;;;;;;;;;;4903133;29;20407;-84
2023/03/09 06:04:49;;;;;;;22.27;12.38;;;;;;;;;;4890580;29;20044;-85
2023/03/09 06:07:35;;;;;;;14.55;6.10;;;;;;;;;;4903497;29;20052;-85
2023/03/09 06:10:21;;;;;;;8.63;5.07;;;;;;;;;;4885206;29;20499;-85
2023/03/09 06:13:07;;;;;;;9.77;5.45;;;;;;;;;;4903140;29;20052;-85
2023/03/09 06:15:53;;;;;;;12.32;6.63;;;;;;;;;;4890278;29;20045;-86
2023/03/09 06:18:38;;;;;;;11.43;6.28;;;;;;;;;;4889585;29;20048;-85
2023/03/09 06:21:25;;;;;;;14.48;7.20;;;;;;;;;;4903459;29;20052;-81
2023/03/09 06:24:10;;;;;;;17.88;7.90;;;;;;;;;;4903121;29;20056;-81
2023/03/09 06:26:59;;;;;;;24.23;11.23;;;;;;;;;;4903080;29;20041;-81
2023/03/09 06:29:54;;;;;;;31.95;19.75;;;;;;;;;;4890265;29;20057;-81
2023/03/09 06:32:40;;;;;;;22.73;13.85;;;;;;;;;;4876853;29;20040;-81
2023/03/09 06:35:25;;;;;;;21.63;12.65;;;;;;;;;;4889732;29;20399;-81
2023/03/09 06:38:10;;;;;;;18.48;11.30;;;;;;;;;;4902831;29;20049;-81
2023/03/09 06:40:56;;;;;;;15.60;6.93;;;;;;;;;;4903504;29;20052;-81
2023/03/09 06:43:45;;;;;;;13.02;7.05;;;;;;;;;;4920643;23;20339;-82
2023/03/09 06:46:31;;;;;;;18.25;8.40;;;;;;;;;;4957642;28;20063;-81
2023/03/09 06:49:16;;;;;;;11.77;6.55;;;;;;;;;;4963900;28;20484;-81
2023/03/09 06:52:05;;;;;;;31.35;15.32;;;;;;;;;;4965598;28;20509;-81
2023/03/09 06:54:51;;;;;;;19.77;10.40;;;;;;;;;;4966012;28;20050;-81
2023/03/09 06:57:39;;;;;;;21.88;10.55;;;;;;;;;;4959513;28;20050;-81
2023/03/09 07:00:25;;;;;;;50.60;30.13;;;;;;;;;;4965901;28;20042;-81
2023/03/09 07:03:19;;;;;;;28.77;17.02;;;;;;;;;;4966611;28;20054;-80
2023/03/09 07:06:04;;;;;;;31.98;19.38;;;;;;;;;;4965703;28;20043;-81
2023/03/09 07:08:49;;;;;;;52.22;27.35;;;;;;;;;;4965505;28;20437;-81
2023/03/09 07:11:34;;;;;;;50.55;29.45;;;;;;;;;;4976230;28;20034;-81
2023/03/09 07:14:20;;;;;;;43.85;25.13;;;;;;;;;;4977422;28;20054;-80
2023/03/09 07:17:06;;;;;;;36.33;19.50;;;;;;;;;;4977632;28;20488;-80
2023/03/09 07:19:54;;;;;;;35.08;17.65;;;;;;;;;;4991465;28;20038;-82
2023/03/09 07:22:39;;;;;;;32.00;17.65;;;;;;;;;;4996764;28;20046;-82
2023/03/09 07:25:25;;;;;;;46.42;26.83;;;;;;;;;;4996406;28;20042;-81
2023/03/09 07:28:11;;;;;;;59.20;33.88;;;;;;;;;;4996398;28;20050;-81
2023/03/09 07:30:56;;;;;;;86.90;44.72;;;;;;;;;;4996647;28;20051;-81
2023/03/09 07:33:42;;;;;;;85.68;48.10;;;;;;;;;;4996739;28;20038;-81
2023/03/09 07:36:27;;;;;;;89.65;47.15;;;;;;;;;;4988345;28;20093;-81
2023/03/09 07:39:14;;;;;;;84.50;42.00;;;;;;;;;;4996829;28;20046;-81
2023/03/09 07:41:58;;;;;;;69.55;33.97;;;;;;;;;;4996718;28;20046;-81
2023/03/09 07:44:43;;;;;;;68.95;36.05;;;;;;;;;;4996122;28;20046;-81
2023/03/09 07:47:31;;;;;;;78.97;38.65;;;;;;;;;;4996597;28;20043;-81
2023/03/09 07:50:17;;;;;;;147.25;59.22;;;;;;;;;;4998999;28;20046;-81
2023/03/09 07:53:03;;;;;;;124.45;51.13;;;;;;;;;;4999907;28;20054;-82
2023/03/09 07:56:00;;;;;;;85.18;39.83;;;;;;;;;;5001249;28;20047;-80
2023/03/09 07:58:46;;;;;;;67.82;33.22;;;;;;;;;;4995431;28;20054;-81
2023/03/09 08:01:32;;;;;;;64.15;32.58;;;;;;;;;;5000870;28;20050;-81
2023/03/09 08:04:17;;;;;;;69.63;37.13;;;;;;;;;;4999677;28;20054;-81
2023/03/09 08:07:03;;;;;;;77.60;38.72;;;;;;;;;;4999455;28;20050;-80
2023/03/09 08:09:48;;;;;;;82.50;40.63;;;;;;;;;;4995862;28;20046;-81
2023/03/09 08:12:34;;;;;;;76.78;40.05;;;;;;;;;;4995708;28;20046;-81
2023/03/09 08:15:20;;;;;;;79.68;37.72;;;;;;;;;;4996240;28;20042;-81
2023/03/09 08:18:06;;;;;;;42.35;21.30;;;;;;;;;;4995834;28;20046;-81
2023/03/09 08:20:52;;;;;;;47.63;24.10;;;;;;;;;;4995201;28;20038;-80
2023/03/09 08:23:43;;;;;;;50.55;23.15;;;;;;;;;;4996026;28;20047;-81
2023/03/09 08:26:28;;;;;;;17.15;10.23;;;;;;;;;;4987349;28;20467;-83
2023/03/09 08:29:14;;;;;;;6.55;3.47;;;;;;;;;;4994628;28;20046;-82
2023/03/09 08:31:59;;;;;;;9.80;5.15;;;;;;;;;;4995719;28;20042;-81
2023/03/09 08:34:45;;;;;;;4.72;2.75;;;;;;;;;;4995526;28;20054;-81
2023/03/09 08:37:30;;;;;;;9.35;4.43;;;;;;;;;;4981086;28;20042;-81
2023/03/09 08:40:16;;;;;;;5.22;2.63;;;;;;;;;;4995475;28;20048;-81
2023/03/09 08:43:01;;;;;;;4.20;2.50;;;;;;;;;;4995041;28;20046;-81
2023/03/09 08:45:47;;;;;;;5.78;2.65;;;;;;;;;;4995606;28;20050;-82
2023/03/09 08:48:32;;;;;;;2.50;1.90;;;;;;;;;;4994901;28;20050;-82
2023/03/09 08:51:18;;;;;;;3.67;1.55;;;;;;;;;;4995235;28;20480;-81
2023/03/09 08:54:04;;;;;;;3.25;2.15;;;;;;;;;;4995114;28;20054;-82
2023/03/09 08:56:49;;;;;;;2.80;1.75;;;;;;;;;;4994948;28;20042;-82
2023/03/09 08:59:35;;;;;;;2.85;1.92;;;;;;;;;;4995312;28;20043;-81
2023/03/09 09:02:20;;;;;;;3.40;2.00;;;;;;;;;;4995107;28;20406;-82
2023/03/09 09:05:07;;;;;;;3.10;1.70;;;;;;;;;;4994879;28;20043;-81
2023/03/09 09:07:54;;;;;;;12.05;7.20;;;;;;;;;;4994728;28;20042;-81
2023/03/09 09:10:42;;;;;;;7.18;3.10;;;;;;;;;;4994871;28;20050;-82
2023/03/09 09:13:28;;;;;;;27.70;15.07;;;;;;;;;;4994696;28;20420;-81
2023/03/09 09:16:15;;;;;;;16.98;9.20;;;;;;;;;;4993978;28;20058;-81
2023/03/09 09:19:00;;;;;;;17.85;9.48;;;;;;;;;;4994473;28;20404;-80
2023/03/09 09:21:46;;;;;;;2.90;1.65;;;;;;;;;;4994597;28;20046;-81
2023/03/09 09:24:35;;;;;;;2.70;1.80;;;;;;;;;;4994807;28;20469;-81
2023/03/09 09:27:20;;;;;;;3.70;1.70;;;;;;;;;;4994444;28;20396;-80
2023/03/09 09:30:09;;;;;;;4.47;2.33;;;;;;;;;;4994400;28;20051;-82
2023/03/09 09:32:54;;;;;;;2.40;1.70;;;;;;;;;;4979658;28;20054;-80
2023/03/09 09:35:39;;;;;;;2.78;1.70;;;;;;;;;;4994317;28;20043;-81
2023/03/09 09:38:27;;;;;;;2.80;1.90;;;;;;;;;;4993721;28;20050;-81
2023/03/09 09:41:24;;;;;;;6.18;3.63;;;;;;;;;;4994166;28;20046;-81
2023/03/09 09:44:44;;;;;;;3.55;1.42;;;;;;;;;;4993572;28;20050;-81
2023/03/09 09:47:32;;;;;;;1.90;1.30;;;;;;;;;;4993811;28;20046;-81
2023/03/09 09:50:17;;;;;;;3.13;2.30;;;;;;;;;;4993758;28;20046;-81
2023/03/09 09:53:23;;;;;;;4.93;1.50;;;;;;;;;;4994013;28;20043;-82
2023/03/09 09:56:14;;;;;;;3.60;2.10;;;;;;;;;;4994087;28;20046;-81
2023/03/09 09:59:06;;;;;;;4.72;1.98;;;;;;;;;;4993769;28;20046;-80
2023/03/09 10:02:10;;;;;;;3.67;1.55;;;;;;;;;;4994076;28;20034;-81
2023/03/09 10:05:10;;;;;;;3.33;1.50;;;;;;;;;;4993782;28;20042;-79
2023/03/09 10:08:01;;;;;;;3.33;1.85;;;;;;;;;;4993922;28;20042;-81
2023/03/09 10:10:47;;;;;;;1.98;1.38;;;;;;;;;;4993142;28;20046;-81
2023/03/09 10:13:43;;;;;;;3.22;1.55;;;;;;;;;;4993650;28;20046;-81
2023/03/09 10:16:36;;;;;;;6.10;1.38;;;;;;;;;;4993976;28;20407;-81
2023/03/09 10:19:31;;;;;;;3.33;1.70;;;;;;;;;;4993451;28;20046;-81
2023/03/09 10:22:27;;;;;;;1.77;1.60;;;;;;;;;;4993780;28;20046;-81
2023/03/09 10:25:15;;;;;;;4.22;2.70;;;;;;;;;;4993042;28;20488;-81
2023/03/09 10:28:08;;;;;;;2.20;1.63;;;;;;;;;;4993932;28;20046;-82
2023/03/09 10:31:01;;;;;;;2.03;1.40;;;;;;;;;;4993683;28;20046;-81
2023/03/09 10:34:03;;;;;;;5.10;1.70;;;;;;;;;;4985472;28;20050;-81
2023/03/09 10:36:57;;;;;;;16.30;7.22;;;;;;;;;;4993182;28;20046;-81
2023/03/09 10:39:45;;;;;;;21.27;11.00;;;;;;;;;;4985468;28;20054;-82
2023/03/09 10:42:36;;;;;;;8.60;4.72;;;;;;;;;;4993501;28;20046;-81
2023/03/09 10:45:23;;;;;;;4.82;1.80;;;;;;;;;;4993091;28;20046;-82
2023/03/09 10:48:18;;;;;;;2.13;1.17;;;;;;;;;;4997585;28;20411;-81
2023/03/09 10:51:05;;;;;;;2.13;1.60;;;;;;;;;;4997460;28;20043;-81
2023/03/09 10:53:53;;;;;;;4.05;1.85;;;;;;;;;;4997463;28;20392;-81
2023/03/09 10:56:45;;;;;;;2.78;2.10;;;;;;;;;;4989232;28;20038;-81
2023/03/09 10:59:30;;;;;;;2.47;1.70;;;;;;;;;;4982229;28;20050;-81
2023/03/09 11:02:35;;;;;;;2.67;1.60;;;;;;;;;;4997383;28;20043;-81
2023/03/09 11:05:26;;;;;;;3.20;2.10;;;;;;;;;;4982200;28;20042;-81
2023/03/09 11:08:23;;;;;;;7.60;4.15;;;;;;;;;;4982261;28;20042;-81
2023/03/09 11:11:20;;;;;;;1.88;1.67;;;;;;;;;;4996785;28;20042;-81
2023/03/09 11:14:23;;;;;;;4.63;2.10;;;;;;;;;;4997096;28;20042;-81
2023/03/09 11:17:38;;;;;;;2.88;1.90;;;;;;;;;;4996894;28;20039;-81
2023/03/09 11:20:36;;;;;;;8.43;4.83;;;;;;;;;;4996869;28;20046;-81
2023/03/09 11:23:39;;;;;;;4.93;2.33;;;;;;;;;;4996549;28;20054;-82
2023/03/09 11:26:29;;;;;;;3.35;1.80;;;;;;;;;;4997017;28;20050;-81
2023/03/09 11:29:38;;;;;;;3.85;1.85;;;;;;;;;;4996365;28;20046;-81
2023/03/09 11:32:23;;;;;;;8.75;5.63;;;;;;;;;;4997163;28;20481;-81
2023/03/09 11:35:14;;;;;;;14.52;9.38;;;;;;;;;;4996478;28;20050;-81
2023/03/09 11:38:04;;;;;;;9.05;4.80;;;;;;;;;;4995953;28;20392;-80
2023/03/09 11:41:07;;;;;;;6.22;2.05;;;;;;;;;;4996767;28;20038;-80
2023/03/09 11:44:24;;;;;;;2.83;1.35;;;;;;;;;;4996139;28;20404;-80
2023/03/09 11:47:25;;;;;;;4.20;1.88;;;;;;;;;;4989625;28;20046;-81
2023/03/09 11:50:21;;;;;;;4.68;2.40;;;;;;;;;;4996147;28;20035;-81
2023/03/09 11:53:19;;;;;;;7.90;3.30;;;;;;;;;;4996438;28;20046;-80
2023/03/09 11:56:17;;;;;;;4.93;2.65;;;;;;;;;;4994899;28;20046;-81
2023/03/09 11:59:19;;;;;;;3.50;2.00;;;;;;;;;;4987987;28;20492;-80
2023/03/09 12:02:13;;;;;;;7.82;2.75;;;;;;;;;;4981389;28;20054;-81
2023/03/09 12:05:00;;;;;;;5.65;2.78;;;;;;;;;;4988204;28;20054;-81
2023/03/09 12:07:50;;;;;;;7.95;3.42;;;;;;;;;;4995960;28;20072;-81
2023/03/09 12:10:42;;;;;;;2.70;1.77;;;;;;;;;;4995779;28;20050;-81
2023/03/09 12:13:34;;;;;;;5.03;2.67;;;;;;;;;;4994977;28;20042;-82
2023/03/09 12:16:39;;;;;;;5.72;2.80;;;;;;;;;;4995923;28;20042;-81
2023/03/09 12:19:29;;;;;;;7.53;2.80;;;;;;;;;;4995717;28;20046;-80
2023/03/09 12:22:18;;;;;;;9.90;3.22;;;;;;;;;;4988073;28;20500;-81
2023/03/09 12:25:16;;;;;;;14.02;3.75;;;;;;;;;;4995629;28;20038;-81
2023/03/09 12:28:04;;;;;;;7.85;3.40;;;;;;;;;;4995575;28;20038;-81
2023/03/09 12:30:55;;;;;;;5.50;3.30;;;;;;;;;;4995742;28;20042;-80
2023/03/09 12:33:41;;;;;;;6.18;3.55;;;;;;;;;;4995432;28;20058;-81
2023/03/09 12:36:32;;;;;;;5.63;3.05;;;;;;;;;;4995540;28;20042;-81
2023/03/09 12:39:28;;;;;;;5.20;2.15;;;;;;;;;;4995500;28;20050;-81
2023/03/09 12:42:12;;;;;;;7.28;2.95;;;;;;;;;;4994812;28;20046;-81
2023/03/09 12:44:59;;;;;;;11.45;6.72;;;;;;;;;;4995022;28;20058;-81
2023/03/09 12:47:47;;;;;;;7.68;4.00;;;;;;;;;;4980459;28;20054;-80
2023/03/09 12:50:41;;;;;;;9.30;4.45;;;;;;;;;;4995489;28;20047;-81
2023/03/09 12:53:30;;;;;;;6.78;3.90;;;;;;;;;;4994794;28;20484;-82
2023/03/09 12:56:19;;;;;;;3.20;2.35;;;;;;;;;;4995117;28;20043;-82
2023/03/09 12:59:09;;;;;;;5.05;3.28;;;;;;;;;;4995086;28;20034;-81
2023/03/09 13:01:54;;;;;;;10.07;4.90;;;;;;;;;;4994730;28;20492;-81
2023/03/09 13:04:39;;;;;;;12.77;6.05;;;;;;;;;;4994771;28;20493;-81
2023/03/09 13:07:25;;;;;;;5.75;3.25;;;;;;;;;;4994728;28;20046;-81
2023/03/09 13:10:21;;;;;;;7.80;3.70;;;;;;;;;;4994241;28;20481;-80
2023/03/09 13:13:45;;;;;;;7.55;4.20;;;;;;;;;;4994320;28;20046;-81
2023/03/09 13:16:48;;;;;;;17.75;7.55;;;;;;;;;;4915599;29;20064;-81
2023/03/09 13:19:38;;;;;;;7.85;5.28;;;;;;;;;;4994618;28;20042;-81
2023/03/09 13:22:26;;;;;;;4.15;3.08;;;;;;;;;;4994708;28;20038;-81
2023/03/09 13:25:40;;;;;;;4.45;2.45;;;;;;;;;;4994224;28;20393;-81
2023/03/09 13:28:39;;;;;;;4.20;2.58;;;;;;;;;;4994481;28;20046;-81
2023/03/09 13:31:26;;;;;;;9.25;2.88;;;;;;;;;;4979468;28;20042;-80
2023/03/09 13:34:28;;;;;;;4.95;2.78;;;;;;;;;;4993994;28;20042;-80
2023/03/09 13:37:17;;;;;;;4.97;1.60;;;;;;;;;;4993337;28;20050;-81
2023/03/09 13:40:06;;;;;;;1.80;1.25;;;;;;;;;;4994157;28;20050;-81
2023/03/09 13:42:52;;;;;;;2.33;1.25;;;;;;;;;;4994431;28;20046;-81
2023/03/09 13:45:38;;;;;;;5.45;2.15;;;;;;;;;;4993962;28;20050;-80
2023/03/09 13:48:24;;;;;;;2.78;1.83;;;;;;;;;;4994446;28;20042;-81
2023/03/09 13:51:32;;;;;;;4.47;2.58;;;;;;;;;;4992905;28;20400;-81
2023/03/09 13:54:23;;;;;;;6.85;2.63;;;;;;;;;;4992279;28;20053;-81
2023/03/09 13:57:23;;;;;;;5.95;2.72;;;;;;;;;;4992733;28;20492;-81
2023/03/09 14:00:26;;;;;;;6.93;3.78;;;;;;;;;;4992277;28;20058;-80
2023/03/09 14:03:11;;;;;;;12.60;7.55;;;;;;;;;;4991045;28;20407;-80
2023/03/09 14:06:03;;;;;;;12.90;6.75;;;;;;;;;;4992304;28;20500;-81
2023/03/09 14:08:52;;;;;;;18.42;8.18;;;;;;;;;;4993923;28;20046;-81
2023/03/09 14:11:39;;;;;;;9.73;5.28;;;;;;;;;;4993747;28;20054;-81
2023/03/09 14:14:26;;;;;;;4.43;2.53;;;;;;;;;;4993707;28;20392;-81
2023/03/09 14:17:18;;;;;;;10.20;3.70;;;;;;;;;;4993444;28;20046;-81
2023/03/09 14:20:04;;;;;;;6.68;2.88;;;;;;;;;;4993242;28;20050;-79
2023/03/09 14:22:49;;;;;;;6.30;3.00;;;;;;;;;;4978765;28;20400;-80
2023/03/09 14:25:35;;;;;;;10.07;4.18;;;;;;;;;;4993472;28;20054;-83
2023/03/09 14:28:29;;;;;;;10.73;4.57;;;;;;;;;;4971766;28;20050;-81
2023/03/09 14:31:15;;;;;;;12.73;6.57;;;;;;;;;;4993559;28;20050;-80
2023/03/09 14:34:05;;;;;;;10.13;4.88;;;;;;;;;;4993276;28;20043;-82
2023/03/09 14:36:56;;;;;;;6.60;4.43;;;;;;;;;;4993783;28;20046;-81
2023/03/09 14:39:42;;;;;;;7.22;2.47;;;;;;;;;;4977489;28;20046;-82
2023/03/09 14:42:33;;;;;;;3.72;1.52;;;;;;;;;;4993382;28;20042;-79
2023/03/09 14:45:22;;;;;;;9.23;3.83;;;;;;;;;;4993763;28;20042;-79
2023/03/09 14:48:07;;;;;;;7.65;3.03;;;;;;;;;;4994775;28;20046;-79
2023/03/09 14:50:52;;;;;;;5.50;2.80;;;;;;;;;;4994348;28;20050;-79
2023/03/09 14:53:49;;;;;;;3.28;2.25;;;;;;;;;;4987664;28;20034;-79
2023/03/09 14:56:34;;;;;;;5.88;2.25;;;;;;;;;;4994360;28;20034;-79
2023/03/09 14:59:20;;;;;;;6.78;2.67;;;;;;;;;;4993712;28;20051;-79
2023/03/09 15:02:08;;;;;;;4.63;2.97;;;;;;;;;;4992698;28;20047;-79
2023/03/09 15:04:54;;;;;;;4.57;1.90;;;;;;;;;;4993095;28;20046;-79
2023/03/09 15:07:38;;;;;;;2.75;2.10;;;;;;;;;;4993821;28;20046;-79
2023/03/09 15:10:26;;;;;;;2.05;1.30;;;;;;;;;;4993354;28;20046;-79
2023/03/09 15:13:12;;;;;;;5.50;1.90;;;;;;;;;;4993429;28;20492;-79
2023/03/09 15:15:58;;;;;;;5.65;2.58;;;;;;;;;;4992668;28;20054;-78
2023/03/09 15:18:43;;;;;;;6.13;1.95;;;;;;;;;;4994039;28;20457;-79
2023/03/09 15:21:29;;;;;;;7.38;1.98;;;;;;;;;;4986525;28;20485;-79
2023/03/09 15:24:15;;;;;;;5.25;2.20;;;;;;;;;;4994757;28;20035;-79
2023/03/09 15:27:01;;;;;;;3.63;1.90;;;;;;;;;;4994748;28;20043;-79
2023/03/09 15:29:46;;;;;;;2.72;1.70;;;;;;;;;;4993792;28;20050;-79
2023/03/09 15:32:32;;;;;;;5.53;1.85;;;;;;;;;;4996855;28;20042;-79
2023/03/09 15:35:19;;;;;;;4.70;2.20;;;;;;;;;;4997903;28;20038;-79
2023/03/09 15:38:04;;;;;;;6.55;2.30;;;;;;;;;;4997013;28;20393;-80
2023/03/09 15:40:50;;;;;;;7.25;3.75;;;;;;;;;;4996511;28;20492;-79
2023/03/09 15:43:35;;;;;;;4.80;2.30;;;;;;;;;;4997448;28;20054;-79
2023/03/09 15:46:21;;;;;;;3.90;1.75;;;;;;;;;;4996636;28;20051;-79
2023/03/09 15:49:07;;;;;;;5.68;2.17;;;;;;;;;;4997167;28;20046;-79
2023/03/09 15:51:53;;;;;;;6.85;4.18;;;;;;;;;;4997021;28;20050;-80
2023/03/09 15:54:38;;;;;;;6.30;2.80;;;;;;;;;;4995215;28;20038;-79
2023/03/09 15:57:24;;;;;;;6.07;3.15;;;;;;;;;;4995634;28;20055;-80
2023/03/09 16:00:11;;;;;;;11.95;5.93;;;;;;;;;;4994576;28;20054;-81
2023/03/09 16:03:04;;;;;;;8.40;3.67;;;;;;;;;;4985977;28;20488;-79
2023/03/09 16:05:49;;;;;;;16.00;7.97;;;;;;;;;;4994299;28;20087;-79
2023/03/09 16:08:34;;;;;;;8.63;4.65;;;;;;;;;;4995754;28;20258;-78
2023/03/09 16:11:20;;;;;;;8.10;2.95;;;;;;;;;;4996639;28;20387;-79
2023/03/09 16:14:05;;;;;;;4.65;3.15;;;;;;;;;;4981105;28;20424;-80
2023/03/09 16:16:50;;;;;;;5.82;4.05;;;;;;;;;;4996531;28;20042;-80
2023/03/09 16:19:36;;;;;;;9.73;4.47;;;;;;;;;;4995851;28;20050;-80
2023/03/09 16:22:22;;;;;;;8.85;4.65;;;;;;;;;;4995599;28;20054;-80
2023/03/09 16:25:07;;;;;;;21.88;9.82;;;;;;;;;;4996046;28;20050;-80
2023/03/09 16:27:52;;;;;;;16.08;7.22;;;;;;;;;;4996044;28;20038;-80
2023/03/09 16:30:38;;;;;;;9.73;5.07;;;;;;;;;;4995847;28;20046;-80
2023/03/09 16:33:24;;;;;;;14.38;6.57;;;;;;;;;;4995949;28;20042;-80
2023/03/09 16:36:09;;;;;;;12.05;7.65;;;;;;;;;;4995512;28;20042;-79